sensor_id;sensor_type;location;lat;lon;timestamp;P1;durP1;ratioP1;P2;durP2;ratioP2
2011;SDS011;1009;51.436;6.972;2023-09-08T00:01:50;7.57;;;4.73;;
2011;SDS011;1009;51.436;6.972;2023-09-08T00:04:17;5.67;;;3.90;;
2011;SDS011;1009;51.436;6.972;2023-09-08T00:06:46;6.20;;;4.57;;
2011;SDS011;1009;51.436;6.972;2023-09-08T00:09:12;5.23;;;4.13;;
2011;SDS011;1009;51.436;6.972;2023-09-08T00:11:39;5.80;;;4.57;;
2011;SDS011;1009;51.436;6.972;2023-09-08T00:14:07;6.93;;;4.80;;
2011;SDS011;1009;51.436;6.972;2023-09-08T00:16:34;5.57;;;4.00;;
2011;SDS011;1009;51.436;6.972;2023-09-08T00:19:01;4.93;;;4.13;;
2011;SDS011;1009;51.436;6.972;2023-09-08T00:21:27;7.30;;;3.93;;
2011;SDS011;1009;51.436;6.972;2023-09-08T00:23:54;6.63;;;4.83;;
2011;SDS011;1009;51.436;6.972;2023-09-08T00:26:21;5.90;;;4.07;;
2011;SDS011;1009;51.436;6.972;2023-09-08T00:28:48;18.67;;;4.77;;
2011;SDS011;1009;51.436;6.972;2023-09-08T00:31:16;5.27;;;4.20;;
2011;SDS011;1009;51.436;6.972;2023-09-08T00:33:43;5.70;;;4.27;;
2011;SDS011;1009;51.436;6.972;2023-09-08T00:36:09;4.80;;;4.13;;
2011;SDS011;1009;51.436;6.972;2023-09-08T00:38:36;4.83;;;4.37;;
2011;SDS011;1009;51.436;6.972;2023-09-08T00:41:04;6.90;;;4.30;;
2011;SDS011;1009;51.436;6.972;2023-09-08T00:43:31;7.10;;;5.03;;
2011;SDS011;1009;51.436;6.972;2023-09-08T00:45:57;7.10;;;4.97;;
2011;SDS011;1009;51.436;6.972;2023-09-08T00:48:28;8.40;;;5.87;;
2011;SDS011;1009;51.436;6.972;2023-09-08T00:50:56;5.00;;;3.93;;
2011;SDS011;1009;51.436;6.972;2023-09-08T00:53:23;7.07;;;5.07;;
2011;SDS011;1009;51.436;6.972;2023-09-08T00:55:51;7.20;;;5.00;;
2011;SDS011;1009;51.436;6.972;2023-09-08T00:58:18;7.87;;;4.60;;
2011;SDS011;1009;51.436;6.972;2023-09-08T01:00:45;6.07;;;4.90;;
2011;SDS011;1009;51.436;6.972;2023-09-08T01:03:12;6.67;;;5.17;;
2011;SDS011;1009;51.436;6.972;2023-09-08T01:05:40;7.07;;;4.70;;
2011;SDS011;1009;51.436;6.972;2023-09-08T01:08:07;8.40;;;5.30;;
2011;SDS011;1009;51.436;6.972;2023-09-08T01:10:35;6.50;;;4.70;;
2011;SDS011;1009;51.436;6.972;2023-09-08T01:13:03;6.30;;;4.87;;
2011;SDS011;1009;51.436;6.972;2023-09-08T01:15:29;5.20;;;4.70;;
2011;SDS011;1009;51.436;6.972;2023-09-08T01:17:56;4.50;;;4.07;;
2011;SDS011;1009;51.436;6.972;2023-09-08T01:20:24;6.80;;;5.43;;
2011;SDS011;1009;51.436;6.972;2023-09-08T01:23:07;6.87;;;4.30;;
2011;SDS011;1009;51.436;6.972;2023-09-08T01:25:45;6.37;;;3.80;;
2011;SDS011;1009;51.436;6.972;2023-09-08T01:28:17;5.10;;;4.00;;
2011;SDS011;1009;51.436;6.972;2023-09-08T01:30:45;5.50;;;4.10;;
2011;SDS011;1009;51.436;6.972;2023-09-08T01:33:13;5.90;;;4.20;;
2011;SDS011;1009;51.436;6.972;2023-09-08T01:35:40;5.93;;;4.10;;
2011;SDS011;1009;51.436;6.972;2023-09-08T01:38:07;5.87;;;4.03;;
2011;SDS011;1009;51.436;6.972;2023-09-08T01:40:34;5.43;;;4.00;;
2011;SDS011;1009;51.436;6.972;2023-09-08T01:43:02;4.70;;;4.23;;
2011;SDS011;1009;51.436;6.972;2023-09-08T01:45:29;7.93;;;5.20;;
2011;SDS011;1009;51.436;6.972;2023-09-08T01:47:55;7.80;;;5.13;;
2011;SDS011;1009;51.436;6.972;2023-09-08T01:50:22;6.13;;;4.80;;
2011;SDS011;1009;51.436;6.972;2023-09-08T01:52:49;7.20;;;4.93;;
2011;SDS011;1009;51.436;6.972;2023-09-08T01:55:16;8.07;;;4.83;;
2011;SDS011;1009;51.436;6.972;2023-09-08T01:57:43;7.10;;;4.60;;
2011;SDS011;1009;51.436;6.972;2023-09-08T02:00:13;5.70;;;4.63;;
2011;SDS011;1009;51.436;6.972;2023-09-08T02:02:40;6.20;;;4.47;;
2011;SDS011;1009;51.436;6.972;2023-09-08T02:05:07;5.93;;;4.27;;
2011;SDS011;1009;51.436;6.972;2023-09-08T02:07:34;8.53;;;4.60;;
2011;SDS011;1009;51.436;6.972;2023-09-08T02:10:01;6.50;;;4.40;;
2011;SDS011;1009;51.436;6.972;2023-09-08T02:12:27;5.07;;;4.37;;
2011;SDS011;1009;51.436;6.972;2023-09-08T02:14:54;6.63;;;4.40;;
2011;SDS011;1009;51.436;6.972;2023-09-08T02:17:22;5.13;;;4.53;;
2011;SDS011;1009;51.436;6.972;2023-09-08T02:19:49;7.00;;;4.33;;
2011;SDS011;1009;51.436;6.972;2023-09-08T02:22:16;6.10;;;4.37;;
2011;SDS011;1009;51.436;6.972;2023-09-08T02:24:43;7.07;;;4.10;;
2011;SDS011;1009;51.436;6.972;2023-09-08T02:27:09;5.10;;;4.07;;
2011;SDS011;1009;51.436;6.972;2023-09-08T02:29:36;5.53;;;4.17;;
2011;SDS011;1009;51.436;6.972;2023-09-08T02:32:03;5.63;;;4.03;;
2011;SDS011;1009;51.436;6.972;2023-09-08T02:34:34;8.07;;;5.33;;
2011;SDS011;1009;51.436;6.972;2023-09-08T02:37:02;6.43;;;4.53;;
2011;SDS011;1009;51.436;6.972;2023-09-08T02:39:29;6.00;;;4.20;;
2011;SDS011;1009;51.436;6.972;2023-09-08T02:41:56;4.47;;;4.07;;
2011;SDS011;1009;51.436;6.972;2023-09-08T02:44:22;6.73;;;4.43;;
2011;SDS011;1009;51.436;6.972;2023-09-08T02:46:50;7.37;;;4.20;;
2011;SDS011;1009;51.436;6.972;2023-09-08T02:49:17;6.60;;;4.20;;
2011;SDS011;1009;51.436;6.972;2023-09-08T02:51:45;5.20;;;4.13;;
2011;SDS011;1009;51.436;6.972;2023-09-08T02:54:12;7.93;;;4.43;;
2011;SDS011;1009;51.436;6.972;2023-09-08T02:56:38;5.93;;;4.63;;
2011;SDS011;1009;51.436;6.972;2023-09-08T02:59:05;7.40;;;5.13;;
2011;SDS011;1009;51.436;6.972;2023-09-08T03:01:32;5.47;;;4.43;;
2011;SDS011;1009;51.436;6.972;2023-09-08T03:03:59;5.93;;;4.20;;
2011;SDS011;1009;51.436;6.972;2023-09-08T03:06:25;5.47;;;4.60;;
2011;SDS011;1009;51.436;6.972;2023-09-08T03:08:54;5.07;;;4.27;;
2011;SDS011;1009;51.436;6.972;2023-09-08T03:11:20;6.20;;;4.47;;
2011;SDS011;1009;51.436;6.972;2023-09-08T03:13:47;5.80;;;4.40;;
2011;SDS011;1009;51.436;6.972;2023-09-08T03:16:14;7.77;;;5.90;;
2011;SDS011;1009;51.436;6.972;2023-09-08T03:18:44;5.43;;;4.57;;
2011;SDS011;1009;51.436;6.972;2023-09-08T03:21:13;7.27;;;5.13;;
2011;SDS011;1009;51.436;6.972;2023-09-08T03:23:41;6.27;;;5.10;;
2011;SDS011;1009;51.436;6.972;2023-09-08T03:26:10;6.03;;;4.70;;
2011;SDS011;1009;51.436;6.972;2023-09-08T03:28:37;6.50;;;4.90;;
2011;SDS011;1009;51.436;6.972;2023-09-08T03:31:05;11.37;;;5.67;;
2011;SDS011;1009;51.436;6.972;2023-09-08T03:33:32;7.03;;;5.40;;
2011;SDS011;1009;51.436;6.972;2023-09-08T03:35:59;8.50;;;4.93;;
2011;SDS011;1009;51.436;6.972;2023-09-08T03:38:26;6.40;;;4.10;;
2011;SDS011;1009;51.436;6.972;2023-09-08T03:40:52;4.23;;;3.73;;
2011;SDS011;1009;51.436;6.972;2023-09-08T03:43:20;8.33;;;5.53;;
2011;SDS011;1009;51.436;6.972;2023-09-08T03:45:47;5.60;;;4.87;;
2011;SDS011;1009;51.436;6.972;2023-09-08T03:48:14;7.40;;;4.70;;
2011;SDS011;1009;51.436;6.972;2023-09-08T03:50:40;6.83;;;5.33;;
2011;SDS011;1009;51.436;6.972;2023-09-08T03:53:10;5.27;;;4.53;;
2011;SDS011;1009;51.436;6.972;2023-09-08T03:55:37;5.67;;;4.60;;
2011;SDS011;1009;51.436;6.972;2023-09-08T03:58:04;5.57;;;4.90;;
2011;SDS011;1009;51.436;6.972;2023-09-08T04:00:32;5.37;;;4.13;;
2011;SDS011;1009;51.436;6.972;2023-09-08T04:02:59;5.37;;;4.87;;
2011;SDS011;1009;51.436;6.972;2023-09-08T04:05:26;7.03;;;5.00;;
2011;SDS011;1009;51.436;6.972;2023-09-08T04:07:53;8.40;;;4.60;;
2011;SDS011;1009;51.436;6.972;2023-09-08T04:10:20;5.50;;;4.53;;
2011;SDS011;1009;51.436;6.972;2023-09-08T04:12:47;7.67;;;4.90;;
2011;SDS011;1009;51.436;6.972;2023-09-08T04:15:14;5.30;;;3.90;;
2011;SDS011;1009;51.436;6.972;2023-09-08T04:17:42;6.90;;;5.00;;
2011;SDS011;1009;51.436;6.972;2023-09-08T04:20:09;7.10;;;4.90;;
2011;SDS011;1009;51.436;6.972;2023-09-08T04:22:38;5.70;;;4.90;;
2011;SDS011;1009;51.436;6.972;2023-09-08T04:25:05;4.30;;;3.77;;
2011;SDS011;1009;51.436;6.972;2023-09-08T04:27:32;6.90;;;4.10;;
2011;SDS011;1009;51.436;6.972;2023-09-08T04:30:00;5.80;;;4.20;;
2011;SDS011;1009;51.436;6.972;2023-09-08T04:32:27;5.47;;;4.30;;
2011;SDS011;1009;51.436;6.972;2023-09-08T04:34:55;4.87;;;4.23;;
2011;SDS011;1009;51.436;6.972;2023-09-08T04:37:22;5.40;;;3.80;;
2011;SDS011;1009;51.436;6.972;2023-09-08T04:39:49;4.73;;;4.13;;
2011;SDS011;1009;51.436;6.972;2023-09-08T04:42:15;5.50;;;3.97;;
2011;SDS011;1009;51.436;6.972;2023-09-08T04:44:42;5.00;;;3.93;;
2011;SDS011;1009;51.436;6.972;2023-09-08T04:47:09;5.30;;;4.57;;
2011;SDS011;1009;51.436;6.972;2023-09-08T04:49:35;4.80;;;4.10;;
2011;SDS011;1009;51.436;6.972;2023-09-08T04:52:04;6.00;;;4.43;;
2011;SDS011;1009;51.436;6.972;2023-09-08T04:54:31;7.77;;;4.20;;
2011;SDS011;1009;51.436;6.972;2023-09-08T04:56:58;9.70;;;5.17;;
2011;SDS011;1009;51.436;6.972;2023-09-08T04:59:25;5.53;;;4.97;;
2011;SDS011;1009;51.436;6.972;2023-09-08T05:01:51;6.20;;;4.43;;
2011;SDS011;1009;51.436;6.972;2023-09-08T05:04:18;4.23;;;3.83;;
2011;SDS011;1009;51.436;6.972;2023-09-08T05:06:45;5.90;;;3.97;;
2011;SDS011;1009;51.436;6.972;2023-09-08T05:09:13;6.43;;;5.00;;
2011;SDS011;1009;51.436;6.972;2023-09-08T05:11:40;5.40;;;3.97;;
2011;SDS011;1009;51.436;6.972;2023-09-08T05:14:07;4.83;;;4.30;;
2011;SDS011;1009;51.436;6.972;2023-09-08T05:16:34;7.70;;;4.90;;
2011;SDS011;1009;51.436;6.972;2023-09-08T05:19:10;5.50;;;4.43;;
2011;SDS011;1009;51.436;6.972;2023-09-08T05:21:37;4.13;;;3.73;;
2011;SDS011;1009;51.436;6.972;2023-09-08T05:24:05;5.80;;;4.47;;
2011;SDS011;1009;51.436;6.972;2023-09-08T05:26:33;6.43;;;4.67;;
2011;SDS011;1009;51.436;6.972;2023-09-08T05:29:02;6.67;;;4.10;;
2011;SDS011;1009;51.436;6.972;2023-09-08T05:31:28;8.83;;;4.00;;
2011;SDS011;1009;51.436;6.972;2023-09-08T05:33:55;6.43;;;4.40;;
2011;SDS011;1009;51.436;6.972;2023-09-08T05:36:22;5.10;;;3.70;;
2011;SDS011;1009;51.436;6.972;2023-09-08T05:38:49;4.93;;;4.23;;
2011;SDS011;1009;51.436;6.972;2023-09-08T05:41:15;7.10;;;4.77;;
2011;SDS011;1009;51.436;6.972;2023-09-08T05:43:44;5.93;;;4.47;;
2011;SDS011;1009;51.436;6.972;2023-09-08T05:46:11;4.37;;;3.73;;
2011;SDS011;1009;51.436;6.972;2023-09-08T05:48:38;9.43;;;4.70;;
2011;SDS011;1009;51.436;6.972;2023-09-08T05:51:04;5.53;;;4.10;;
2011;SDS011;1009;51.436;6.972;2023-09-08T05:53:31;4.27;;;3.90;;
2011;SDS011;1009;51.436;6.972;2023-09-08T05:56:00;4.70;;;4.00;;
2011;SDS011;1009;51.436;6.972;2023-09-08T05:58:27;5.70;;;3.87;;
2011;SDS011;1009;51.436;6.972;2023-09-08T06:00:55;6.17;;;4.17;;
2011;SDS011;1009;51.436;6.972;2023-09-08T06:03:22;5.53;;;4.57;;
2011;SDS011;1009;51.436;6.972;2023-09-08T06:05:49;6.17;;;4.40;;
2011;SDS011;1009;51.436;6.972;2023-09-08T06:08:16;6.60;;;3.90;;
2011;SDS011;1009;51.436;6.972;2023-09-08T06:10:42;4.93;;;4.20;;
2011;SDS011;1009;51.436;6.972;2023-09-08T06:13:09;7.37;;;5.10;;
2011;SDS011;1009;51.436;6.972;2023-09-08T06:15:36;6.60;;;5.10;;
2011;SDS011;1009;51.436;6.972;2023-09-08T06:18:05;6.60;;;4.87;;
2011;SDS011;1009;51.436;6.972;2023-09-08T06:20:32;5.00;;;4.50;;
2011;SDS011;1009;51.436;6.972;2023-09-08T06:22:58;5.73;;;4.70;;
2011;SDS011;1009;51.436;6.972;2023-09-08T06:25:26;6.70;;;4.50;;
2011;SDS011;1009;51.436;6.972;2023-09-08T06:27:53;5.63;;;4.10;;
2011;SDS011;1009;51.436;6.972;2023-09-08T06:30:20;8.33;;;5.20;;
2011;SDS011;1009;51.436;6.972;2023-09-08T06:32:46;6.13;;;4.40;;
2011;SDS011;1009;51.436;6.972;2023-09-08T06:35:14;8.80;;;5.23;;
2011;SDS011;1009;51.436;6.972;2023-09-08T06:37:41;10.10;;;5.10;;
2011;SDS011;1009;51.436;6.972;2023-09-08T06:40:08;6.43;;;5.37;;
2011;SDS011;1009;51.436;6.972;2023-09-08T06:42:35;9.03;;;6.07;;
2011;SDS011;1009;51.436;6.972;2023-09-08T06:45:02;12.83;;;5.87;;
2011;SDS011;1009;51.436;6.972;2023-09-08T06:47:28;10.33;;;6.37;;
2011;SDS011;1009;51.436;6.972;2023-09-08T06:49:55;8.87;;;6.57;;
2011;SDS011;1009;51.436;6.972;2023-09-08T06:52:23;8.00;;;5.40;;
2011;SDS011;1009;51.436;6.972;2023-09-08T06:54:50;10.63;;;6.30;;
2011;SDS011;1009;51.436;6.972;2023-09-08T06:57:17;6.97;;;6.00;;
2011;SDS011;1009;51.436;6.972;2023-09-08T06:59:44;8.50;;;5.63;;
2011;SDS011;1009;51.436;6.972;2023-09-08T07:02:11;6.17;;;5.50;;
2011;SDS011;1009;51.436;6.972;2023-09-08T07:04:38;9.97;;;5.63;;
2011;SDS011;1009;51.436;6.972;2023-09-08T07:07:04;8.83;;;6.93;;
2011;SDS011;1009;51.436;6.972;2023-09-08T07:09:34;8.70;;;6.97;;
2011;SDS011;1009;51.436;6.972;2023-09-08T07:12:02;8.90;;;6.40;;
2011;SDS011;1009;51.436;6.972;2023-09-08T07:14:29;9.10;;;6.20;;
2011;SDS011;1009;51.436;6.972;2023-09-08T07:16:56;11.33;;;7.23;;
2011;SDS011;1009;51.436;6.972;2023-09-08T07:19:22;8.27;;;6.57;;
2011;SDS011;1009;51.436;6.972;2023-09-08T07:21:49;6.97;;;5.60;;
2011;SDS011;1009;51.436;6.972;2023-09-08T07:24:16;8.30;;;6.13;;
2011;SDS011;1009;51.436;6.972;2023-09-08T07:26:44;9.00;;;6.63;;
2011;SDS011;1009;51.436;6.972;2023-09-08T07:29:10;6.30;;;5.17;;
2011;SDS011;1009;51.436;6.972;2023-09-08T07:31:37;8.93;;;6.53;;
2011;SDS011;1009;51.436;6.972;2023-09-08T07:34:05;7.67;;;6.00;;
2011;SDS011;1009;51.436;6.972;2023-09-08T07:36:32;5.47;;;4.30;;
2011;SDS011;1009;51.436;6.972;2023-09-08T07:38:59;5.83;;;5.23;;
2011;SDS011;1009;51.436;6.972;2023-09-08T07:41:25;5.47;;;4.43;;
2011;SDS011;1009;51.436;6.972;2023-09-08T07:43:53;7.60;;;4.00;;
2011;SDS011;1009;51.436;6.972;2023-09-08T07:46:20;5.90;;;5.10;;
2011;SDS011;1009;51.436;6.972;2023-09-08T07:48:47;6.73;;;5.30;;
2011;SDS011;1009;51.436;6.972;2023-09-08T07:51:13;7.67;;;5.30;;
2011;SDS011;1009;51.436;6.972;2023-09-08T07:53:40;11.03;;;6.07;;
2011;SDS011;1009;51.436;6.972;2023-09-08T07:56:07;9.90;;;6.97;;
2011;SDS011;1009;51.436;6.972;2023-09-08T07:58:33;7.13;;;5.50;;
2011;SDS011;1009;51.436;6.972;2023-09-08T08:01:01;6.60;;;4.90;;
2011;SDS011;1009;51.436;6.972;2023-09-08T08:03:28;7.23;;;5.70;;
2011;SDS011;1009;51.436;6.972;2023-09-08T08:05:56;7.73;;;6.53;;
2011;SDS011;1009;51.436;6.972;2023-09-08T08:08:23;7.20;;;5.80;;
2011;SDS011;1009;51.436;6.972;2023-09-08T08:10:49;5.23;;;4.73;;
2011;SDS011;1009;51.436;6.972;2023-09-08T08:13:16;5.33;;;4.50;;
2011;SDS011;1009;51.436;6.972;2023-09-08T08:15:43;8.47;;;3.90;;
2011;SDS011;1009;51.436;6.972;2023-09-08T08:18:13;4.60;;;3.80;;
2011;SDS011;1009;51.436;6.972;2023-09-08T08:20:40;5.23;;;4.00;;
2011;SDS011;1009;51.436;6.972;2023-09-08T08:23:07;4.27;;;3.20;;
2011;SDS011;1009;51.436;6.972;2023-09-08T08:25:34;3.93;;;3.50;;
2011;SDS011;1009;51.436;6.972;2023-09-08T08:28:01;3.77;;;3.37;;
2011;SDS011;1009;51.436;6.972;2023-09-08T08:30:27;3.67;;;3.23;;
2011;SDS011;1009;51.436;6.972;2023-09-08T08:32:54;4.07;;;3.67;;
2011;SDS011;1009;51.436;6.972;2023-09-08T08:35:22;4.00;;;3.60;;
2011;SDS011;1009;51.436;6.972;2023-09-08T08:37:49;4.20;;;3.30;;
2011;SDS011;1009;51.436;6.972;2023-09-08T08:40:16;3.70;;;3.40;;
2011;SDS011;1009;51.436;6.972;2023-09-08T08:42:43;3.80;;;3.23;;
2011;SDS011;1009;51.436;6.972;2023-09-08T08:45:10;5.17;;;3.87;;
2011;SDS011;1009;51.436;6.972;2023-09-08T08:47:37;5.03;;;3.60;;
2011;SDS011;1009;51.436;6.972;2023-09-08T08:50:06;4.23;;;3.30;;
2011;SDS011;1009;51.436;6.972;2023-09-08T08:52:37;4.27;;;3.33;;
2011;SDS011;1009;51.436;6.972;2023-09-08T08:55:05;4.20;;;3.67;;
2011;SDS011;1009;51.436;6.972;2023-09-08T08:57:33;5.03;;;3.50;;
2011;SDS011;1009;51.436;6.972;2023-09-08T09:00:00;5.20;;;3.37;;
2011;SDS011;1009;51.436;6.972;2023-09-08T09:02:29;5.80;;;3.40;;
2011;SDS011;1009;51.436;6.972;2023-09-08T09:04:56;6.90;;;3.30;;
2011;SDS011;1009;51.436;6.972;2023-09-08T09:07:23;6.60;;;3.90;;
2011;SDS011;1009;51.436;6.972;2023-09-08T09:09:52;5.77;;;3.60;;
2011;SDS011;1009;51.436;6.972;2023-09-08T09:12:20;4.40;;;3.57;;
2011;SDS011;1009;51.436;6.972;2023-09-08T09:14:47;5.00;;;3.23;;
2011;SDS011;1009;51.436;6.972;2023-09-08T09:17:18;4.30;;;3.57;;
2011;SDS011;1009;51.436;6.972;2023-09-08T09:19:45;5.70;;;4.03;;
2011;SDS011;1009;51.436;6.972;2023-09-08T09:22:12;4.30;;;3.27;;
2011;SDS011;1009;51.436;6.972;2023-09-08T09:24:39;5.83;;;3.57;;
2011;SDS011;1009;51.436;6.972;2023-09-08T09:27:10;4.70;;;3.40;;
2011;SDS011;1009;51.436;6.972;2023-09-08T09:29:43;4.93;;;3.80;;
2011;SDS011;1009;51.436;6.972;2023-09-08T09:32:11;3.93;;;3.50;;
2011;SDS011;1009;51.436;6.972;2023-09-08T09:34:43;4.00;;;3.13;;
2011;SDS011;1009;51.436;6.972;2023-09-08T09:37:14;5.23;;;3.37;;
2011;SDS011;1009;51.436;6.972;2023-09-08T09:39:41;4.70;;;3.90;;
2011;SDS011;1009;51.436;6.972;2023-09-08T09:42:09;4.70;;;3.60;;
2011;SDS011;1009;51.436;6.972;2023-09-08T09:44:36;4.40;;;4.00;;
2011;SDS011;1009;51.436;6.972;2023-09-08T09:47:03;5.70;;;3.20;;
2011;SDS011;1009;51.436;6.972;2023-09-08T09:49:32;4.73;;;3.63;;
2011;SDS011;1009;51.436;6.972;2023-09-08T09:52:07;4.20;;;3.27;;
2011;SDS011;1009;51.436;6.972;2023-09-08T09:54:34;3.50;;;3.20;;
2011;SDS011;1009;51.436;6.972;2023-09-08T09:57:00;4.43;;;3.37;;
2011;SDS011;1009;51.436;6.972;2023-09-08T09:59:30;4.90;;;3.47;;
2011;SDS011;1009;51.436;6.972;2023-09-08T10:01:57;4.40;;;3.50;;
2011;SDS011;1009;51.436;6.972;2023-09-08T10:04:25;4.20;;;3.30;;
2011;SDS011;1009;51.436;6.972;2023-09-08T10:06:53;5.30;;;3.27;;
2011;SDS011;1009;51.436;6.972;2023-09-08T10:09:22;4.23;;;3.10;;
2011;SDS011;1009;51.436;6.972;2023-09-08T10:11:49;7.13;;;4.30;;
2011;SDS011;1009;51.436;6.972;2023-09-08T10:14:17;4.63;;;4.03;;
2011;SDS011;1009;51.436;6.972;2023-09-08T10:16:46;4.70;;;3.60;;
2011;SDS011;1009;51.436;6.972;2023-09-08T10:19:14;4.80;;;3.37;;
2011;SDS011;1009;51.436;6.972;2023-09-08T10:21:45;4.63;;;3.70;;
2011;SDS011;1009;51.436;6.972;2023-09-08T10:24:13;4.60;;;3.60;;
2011;SDS011;1009;51.436;6.972;2023-09-08T10:26:43;4.77;;;3.80;;
2011;SDS011;1009;51.436;6.972;2023-09-08T10:29:13;5.00;;;3.67;;
2011;SDS011;1009;51.436;6.972;2023-09-08T10:31:40;3.87;;;3.50;;
2011;SDS011;1009;51.436;6.972;2023-09-08T10:34:08;5.43;;;3.57;;
2011;SDS011;1009;51.436;6.972;2023-09-08T10:36:36;5.13;;;3.53;;
2011;SDS011;1009;51.436;6.972;2023-09-08T10:42:05;6.40;;;4.20;;
2011;SDS011;1009;51.436;6.972;2023-09-08T10:44:57;4.60;;;4.03;;
2011;SDS011;1009;51.436;6.972;2023-09-08T10:47:30;3.90;;;3.50;;
2011;SDS011;1009;51.436;6.972;2023-09-08T10:50:00;4.07;;;3.67;;
2011;SDS011;1009;51.436;6.972;2023-09-08T10:52:30;4.00;;;3.03;;
2011;SDS011;1009;51.436;6.972;2023-09-08T10:54:58;4.27;;;3.77;;
2011;SDS011;1009;51.436;6.972;2023-09-08T10:57:25;4.97;;;4.17;;
2011;SDS011;1009;51.436;6.972;2023-09-08T10:59:56;4.50;;;3.37;;
2011;SDS011;1009;51.436;6.972;2023-09-08T11:02:34;10.83;;;5.00;;
2011;SDS011;1009;51.436;6.972;2023-09-08T11:05:04;5.60;;;3.53;;
2011;SDS011;1009;51.436;6.972;2023-09-08T11:07:34;4.00;;;3.60;;
2011;SDS011;1009;51.436;6.972;2023-09-08T11:10:01;3.63;;;3.27;;
2011;SDS011;1009;51.436;6.972;2023-09-08T11:12:29;4.53;;;3.90;;
2011;SDS011;1009;51.436;6.972;2023-09-08T11:14:56;3.37;;;3.07;;
2011;SDS011;1009;51.436;6.972;2023-09-08T11:17:25;4.73;;;3.80;;
2011;SDS011;1009;51.436;6.972;2023-09-08T11:19:53;5.53;;;3.67;;
2011;SDS011;1009;51.436;6.972;2023-09-08T11:22:21;4.10;;;3.70;;
2011;SDS011;1009;51.436;6.972;2023-09-08T11:24:50;4.30;;;3.43;;
2011;SDS011;1009;51.436;6.972;2023-09-08T11:27:17;3.77;;;3.40;;
2011;SDS011;1009;51.436;6.972;2023-09-08T11:29:44;3.47;;;3.17;;
2011;SDS011;1009;51.436;6.972;2023-09-08T11:32:11;4.27;;;3.93;;
2011;SDS011;1009;51.436;6.972;2023-09-08T11:34:38;3.63;;;3.33;;
2011;SDS011;1009;51.436;6.972;2023-09-08T11:37:07;4.70;;;3.50;;
2011;SDS011;1009;51.436;6.972;2023-09-08T11:39:37;4.23;;;3.83;;
2011;SDS011;1009;51.436;6.972;2023-09-08T11:42:04;6.83;;;3.30;;
2011;SDS011;1009;51.436;6.972;2023-09-08T11:44:32;5.60;;;4.20;;
2011;SDS011;1009;51.436;6.972;2023-09-08T11:46:58;4.00;;;3.60;;
2011;SDS011;1009;51.436;6.972;2023-09-08T11:49:25;4.17;;;3.80;;
2011;SDS011;1009;51.436;6.972;2023-09-08T11:51:52;3.47;;;3.23;;
2011;SDS011;1009;51.436;6.972;2023-09-08T11:54:19;4.03;;;3.67;;
2011;SDS011;1009;51.436;6.972;2023-09-08T11:56:47;4.00;;;3.00;;
2011;SDS011;1009;51.436;6.972;2023-09-08T11:59:14;4.70;;;4.30;;
2011;SDS011;1009;51.436;6.972;2023-09-08T12:01:41;4.10;;;3.70;;
2011;SDS011;1009;51.436;6.972;2023-09-08T12:04:13;4.37;;;3.97;;
2011;SDS011;1009;51.436;6.972;2023-09-08T12:06:43;4.13;;;3.53;;
2011;SDS011;1009;51.436;6.972;2023-09-08T12:09:10;3.70;;;3.40;;
2011;SDS011;1009;51.436;6.972;2023-09-08T12:11:37;4.80;;;4.23;;
2011;SDS011;1009;51.436;6.972;2023-09-08T12:14:09;3.87;;;3.47;;
2011;SDS011;1009;51.436;6.972;2023-09-08T12:16:37;6.17;;;3.83;;
2011;SDS011;1009;51.436;6.972;2023-09-08T12:19:04;3.93;;;3.53;;
2011;SDS011;1009;51.436;6.972;2023-09-08T12:21:31;3.80;;;3.40;;
2011;SDS011;1009;51.436;6.972;2023-09-08T12:24:01;4.93;;;3.40;;
2011;SDS011;1009;51.436;6.972;2023-09-08T12:26:28;4.67;;;4.23;;
2011;SDS011;1009;51.436;6.972;2023-09-08T12:28:55;4.20;;;3.90;;
2011;SDS011;1009;51.436;6.972;2023-09-08T12:31:23;3.90;;;3.50;;
2011;SDS011;1009;51.436;6.972;2023-09-08T12:33:50;4.10;;;3.80;;
2011;SDS011;1009;51.436;6.972;2023-09-08T12:36:18;4.10;;;3.67;;
2011;SDS011;1009;51.436;6.972;2023-09-08T12:38:49;4.00;;;3.60;;
2011;SDS011;1009;51.436;6.972;2023-09-08T12:41:17;4.10;;;3.60;;
2011;SDS011;1009;51.436;6.972;2023-09-08T12:43:44;4.57;;;4.17;;
2011;SDS011;1009;51.436;6.972;2023-09-08T12:46:11;4.23;;;3.93;;
2011;SDS011;1009;51.436;6.972;2023-09-08T12:48:39;6.13;;;4.43;;
2011;SDS011;1009;51.436;6.972;2023-09-08T12:51:06;5.93;;;3.80;;
2011;SDS011;1009;51.436;6.972;2023-09-08T12:53:33;5.13;;;4.00;;
2011;SDS011;1009;51.436;6.972;2023-09-08T12:56:01;5.40;;;4.10;;
2011;SDS011;1009;51.436;6.972;2023-09-08T12:58:27;4.53;;;4.13;;
2011;SDS011;1009;51.436;6.972;2023-09-08T13:00:54;4.70;;;3.77;;
2011;SDS011;1009;51.436;6.972;2023-09-08T13:03:22;4.60;;;4.20;;
2011;SDS011;1009;51.436;6.972;2023-09-08T13:05:50;7.00;;;3.60;;
2011;SDS011;1009;51.436;6.972;2023-09-08T13:08:16;5.23;;;4.73;;
2011;SDS011;1009;51.436;6.972;2023-09-08T13:10:43;5.00;;;4.27;;
2011;SDS011;1009;51.436;6.972;2023-09-08T13:13:10;5.00;;;4.37;;
2011;SDS011;1009;51.436;6.972;2023-09-08T13:15:36;4.47;;;4.07;;
2011;SDS011;1009;51.436;6.972;2023-09-08T13:18:03;5.90;;;4.87;;
2011;SDS011;1009;51.436;6.972;2023-09-08T13:20:30;4.33;;;3.90;;
2011;SDS011;1009;51.436;6.972;2023-09-08T13:22:58;6.80;;;4.13;;
2011;SDS011;1009;51.436;6.972;2023-09-08T13:25:25;4.07;;;3.67;;
2011;SDS011;1009;51.436;6.972;2023-09-08T13:27:52;4.23;;;3.83;;
2011;SDS011;1009;51.436;6.972;2023-09-08T13:30:19;4.33;;;3.97;;
2011;SDS011;1009;51.436;6.972;2023-09-08T13:32:47;4.57;;;4.10;;
2011;SDS011;1009;51.436;6.972;2023-09-08T13:35:14;4.07;;;3.67;;
2011;SDS011;1009;51.436;6.972;2023-09-08T13:37:40;4.60;;;4.20;;
2011;SDS011;1009;51.436;6.972;2023-09-08T13:40:09;3.93;;;3.63;;
2011;SDS011;1009;51.436;6.972;2023-09-08T13:42:35;3.40;;;3.13;;
2011;SDS011;1009;51.436;6.972;2023-09-08T13:45:03;4.10;;;3.80;;
2011;SDS011;1009;51.436;6.972;2023-09-08T13:47:30;4.87;;;4.37;;
2011;SDS011;1009;51.436;6.972;2023-09-08T13:49:57;5.27;;;4.53;;
2011;SDS011;1009;51.436;6.972;2023-09-08T13:52:23;4.50;;;4.10;;
2011;SDS011;1009;51.436;6.972;2023-09-08T13:54:50;4.40;;;4.00;;
2011;SDS011;1009;51.436;6.972;2023-09-08T13:57:18;5.07;;;4.50;;
2011;SDS011;1009;51.436;6.972;2023-09-08T13:59:46;4.80;;;4.40;;
2011;SDS011;1009;51.436;6.972;2023-09-08T14:02:12;4.70;;;4.10;;
2011;SDS011;1009;51.436;6.972;2023-09-08T14:04:39;4.13;;;3.67;;
2011;SDS011;1009;51.436;6.972;2023-09-08T14:07:07;5.63;;;4.20;;
2011;SDS011;1009;51.436;6.972;2023-09-08T14:09:34;4.60;;;4.20;;
2011;SDS011;1009;51.436;6.972;2023-09-08T14:12:01;5.10;;;4.70;;
2011;SDS011;1009;51.436;6.972;2023-09-08T14:14:29;4.77;;;3.77;;
2011;SDS011;1009;51.436;6.972;2023-09-08T14:16:56;4.77;;;4.27;;
2011;SDS011;1009;51.436;6.972;2023-09-08T14:19:22;5.07;;;4.00;;
2011;SDS011;1009;51.436;6.972;2023-09-08T14:21:49;4.17;;;3.80;;
2011;SDS011;1009;51.436;6.972;2023-09-08T14:24:16;4.43;;;4.03;;
2011;SDS011;1009;51.436;6.972;2023-09-08T14:26:43;5.70;;;4.27;;
2011;SDS011;1009;51.436;6.972;2023-09-08T14:29:10;4.37;;;3.97;;
2011;SDS011;1009;51.436;6.972;2023-09-08T14:31:38;4.07;;;3.67;;
2011;SDS011;1009;51.436;6.972;2023-09-08T14:34:05;4.40;;;3.70;;
2011;SDS011;1009;51.436;6.972;2023-09-08T14:36:31;4.70;;;4.20;;
2011;SDS011;1009;51.436;6.972;2023-09-08T14:38:58;5.40;;;3.80;;
2011;SDS011;1009;51.436;6.972;2023-09-08T14:41:25;4.67;;;4.10;;
2011;SDS011;1009;51.436;6.972;2023-09-08T14:43:51;3.83;;;3.53;;
2011;SDS011;1009;51.436;6.972;2023-09-08T14:46:18;5.10;;;3.97;;
2011;SDS011;1009;51.436;6.972;2023-09-08T14:48:46;4.57;;;4.13;;
2011;SDS011;1009;51.436;6.972;2023-09-08T14:51:13;4.07;;;3.67;;
2011;SDS011;1009;51.436;6.972;2023-09-08T14:53:40;5.27;;;3.83;;
2011;SDS011;1009;51.436;6.972;2023-09-08T14:56:06;5.20;;;4.30;;
2011;SDS011;1009;51.436;6.972;2023-09-08T14:58:33;4.50;;;3.87;;
2011;SDS011;1009;51.436;6.972;2023-09-08T15:01:00;4.37;;;3.83;;
2011;SDS011;1009;51.436;6.972;2023-09-08T15:03:29;4.37;;;3.93;;
2011;SDS011;1009;51.436;6.972;2023-09-08T15:05:58;4.43;;;4.00;;
2011;SDS011;1009;51.436;6.972;2023-09-08T15:08:25;4.03;;;3.70;;
2011;SDS011;1009;51.436;6.972;2023-09-08T15:10:51;4.67;;;4.00;;
2011;SDS011;1009;51.436;6.972;2023-09-08T15:13:18;4.37;;;3.97;;
2011;SDS011;1009;51.436;6.972;2023-09-08T15:15:45;3.70;;;3.40;;
2011;SDS011;1009;51.436;6.972;2023-09-08T15:18:12;5.40;;;4.00;;
2011;SDS011;1009;51.436;6.972;2023-09-08T15:20:39;4.90;;;3.90;;